Terminal Aerodrome Forecast
Issued by NWS Springfield, MO

Home | Current Version | Previous Version | Text Only | Print | Product List | Glossary On
Versions: 1 2 3 4 5 6 7 8 9 10 11 12 13 14 15 16 17
000
FTUS43 KSGF 182320
TAFSGF
TAF
KSGF 182320Z 1900/1924 20012KT P6SM FEW250
     FM190300 20012G19KT P6SM FEW250 WS015/23045KT
     FM191500 20017G25KT P6SM FEW250=

USA.gov is the U.S. government's official web portal to all federal, state and local government web resources and services.